createdAt,value
2024-04-02T00:00:34.622Z,9.72
2024-04-02T00:01:34.618Z,9.74
2024-04-02T00:02:34.589Z,9.76
2024-04-02T00:03:37.768Z,9.74
2024-04-02T00:04:34.563Z,9.76
2024-04-02T00:05:34.580Z,9.74
2024-04-02T00:06:34.516Z,9.75
2024-04-02T00:07:34.545Z,9.74
2024-04-02T00:08:34.491Z,9.74
2024-04-02T00:09:34.551Z,9.74
2024-04-02T00:10:34.513Z,9.78
2024-04-02T00:11:34.476Z,9.75
2024-04-02T00:12:34.457Z,9.71
2024-04-02T00:13:34.443Z,9.68
2024-04-02T00:14:34.458Z,9.66
2024-04-02T00:15:34.456Z,9.64
2024-04-02T00:16:34.450Z,9.61
2024-04-02T00:17:34.427Z,9.60
2024-04-02T00:18:34.403Z,9.57
2024-04-02T00:19:34.364Z,9.54
2024-04-02T00:20:34.378Z,9.54
2024-04-02T00:21:34.347Z,9.57
2024-04-02T00:22:34.332Z,9.58
2024-04-02T00:23:34.296Z,9.57
2024-04-02T00:24:34.353Z,9.53
2024-04-02T00:25:34.390Z,9.54
2024-04-02T00:26:34.324Z,9.53
2024-04-02T00:27:34.262Z,9.57
2024-04-02T00:28:34.265Z,9.58
2024-04-02T00:29:34.293Z,9.58
2024-04-02T00:30:34.261Z,9.57
2024-04-02T00:31:34.235Z,9.64
2024-04-02T00:32:34.232Z,9.60
2024-04-02T00:33:34.398Z,9.64
2024-04-02T00:34:34.189Z,9.69
2024-04-02T00:35:34.226Z,9.69
2024-04-02T00:36:34.198Z,9.68
2024-04-02T00:37:34.157Z,9.69
2024-04-02T00:38:34.146Z,9.71
2024-04-02T00:39:34.123Z,9.66
2024-04-02T00:40:34.097Z,9.66
2024-04-02T00:41:34.212Z,9.61
2024-04-02T00:42:34.094Z,9.60
2024-04-02T00:43:34.106Z,9.60
2024-04-02T00:44:34.078Z,9.56
2024-04-02T00:45:34.057Z,9.57
2024-04-02T00:46:34.066Z,9.56
2024-04-02T00:47:34.067Z,9.54
2024-04-02T00:48:34.007Z,9.57
2024-04-02T00:49:37.135Z,9.58
2024-04-02T00:50:34.005Z,9.58
2024-04-02T00:51:33.990Z,9.61
2024-04-02T00:52:33.991Z,9.61
2024-04-02T00:53:34.001Z,9.65
2024-04-02T00:54:34.034Z,9.64
2024-04-02T00:55:33.950Z,9.61
2024-04-02T00:56:33.899Z,9.60
2024-04-02T00:57:34.952Z,9.64
2024-04-02T00:58:33.890Z,9.61
2024-04-02T00:59:33.902Z,9.66
2024-04-02T01:00:33.906Z,9.64
2024-04-02T01:01:33.860Z,9.58
2024-04-02T01:02:33.855Z,9.53
2024-04-02T01:03:33.834Z,9.51
2024-04-02T01:04:33.854Z,9.53
2024-04-02T01:05:33.804Z,9.54
2024-04-02T01:06:33.801Z,9.50
2024-04-02T01:07:33.788Z,9.51
2024-04-02T01:08:33.813Z,9.53
2024-04-02T01:09:33.761Z,9.54
2024-04-02T01:10:33.728Z,9.48
2024-04-02T01:11:33.708Z,9.46
2024-04-02T01:12:33.704Z,9.42
2024-04-02T01:13:33.708Z,9.46
2024-04-02T01:14:33.744Z,9.40
2024-04-02T01:15:33.693Z,9.35
2024-04-02T01:16:33.670Z,9.33
2024-04-02T01:17:33.656Z,9.35
2024-04-02T01:18:33.643Z,9.29
2024-04-02T01:19:33.641Z,9.29
2024-04-02T01:20:33.647Z,9.21
2024-04-02T01:21:33.606Z,9.21
2024-04-02T01:22:33.581Z,9.13
2024-04-02T01:23:33.554Z,9.08
2024-04-02T01:24:33.542Z,9.04
2024-04-02T01:25:33.561Z,9.02
2024-04-02T01:26:33.579Z,8.99
2024-04-02T01:27:33.525Z,8.98
2024-04-02T01:28:33.506Z,8.94
2024-04-02T01:29:33.498Z,8.95
2024-04-02T01:30:33.482Z,8.94
2024-04-02T01:31:33.515Z,8.95
2024-04-02T01:32:33.496Z,8.92
2024-04-02T01:33:33.489Z,8.95
2024-04-02T01:34:33.456Z,8.94
2024-04-02T01:35:33.419Z,8.95
2024-04-02T01:36:33.422Z,8.98
2024-04-02T01:37:33.415Z,9.04
2024-04-02T01:38:33.391Z,9.01
2024-04-02T01:39:33.414Z,8.99
2024-04-02T01:40:33.406Z,9.01
2024-04-02T01:41:33.421Z,8.98
2024-04-02T01:42:33.377Z,8.99
2024-04-02T01:43:33.373Z,9.05
2024-04-02T01:44:33.358Z,9.10
2024-04-02T01:45:33.343Z,9.10
2024-04-02T01:46:33.305Z,9.15
2024-04-02T01:47:33.313Z,9.15
2024-04-02T01:48:33.272Z,9.11
2024-04-02T01:49:33.282Z,9.15
2024-04-02T01:50:33.234Z,9.14
2024-04-02T01:51:33.233Z,9.17
2024-04-02T01:52:33.232Z,9.20
2024-04-02T01:53:33.232Z,9.20
2024-04-02T01:54:33.214Z,9.18
2024-04-02T01:55:33.226Z,9.21
2024-04-02T01:56:33.197Z,9.18
2024-04-02T01:57:33.227Z,9.20
2024-04-02T01:58:33.177Z,9.21
2024-04-02T01:59:33.172Z,9.26
2024-04-02T02:00:33.167Z,9.26
2024-04-02T02:01:33.122Z,9.29
2024-04-02T02:02:33.146Z,9.29
2024-04-02T02:03:33.103Z,9.32
2024-04-02T02:04:33.110Z,9.32
2024-04-02T02:05:33.061Z,9.36
2024-04-02T02:06:33.044Z,9.35
2024-04-02T02:07:33.039Z,9.39
2024-04-02T02:08:33.028Z,9.39
2024-04-02T02:09:33.022Z,9.42
2024-04-02T02:10:32.991Z,9.39
2024-04-02T02:11:32.998Z,9.40
2024-04-02T02:12:32.946Z,9.43
2024-04-02T02:13:33.046Z,9.47
2024-04-02T02:14:32.956Z,9.47
2024-04-02T02:15:32.973Z,9.47
2024-04-02T02:16:32.921Z,9.48
2024-04-02T02:17:32.950Z,9.51
2024-04-02T02:18:32.907Z,9.51
2024-04-02T02:19:32.906Z,9.50
2024-04-02T02:20:32.886Z,9.53
2024-04-02T02:21:32.871Z,9.51
2024-04-02T02:22:32.850Z,9.54
2024-04-02T02:23:32.850Z,9.54
2024-04-02T02:24:32.824Z,9.54
2024-04-02T02:25:32.825Z,9.58
2024-04-02T02:26:32.824Z,9.57
2024-04-02T02:27:32.912Z,9.54
2024-04-02T02:28:32.749Z,9.53
2024-04-02T02:29:32.752Z,9.54
2024-04-02T02:30:32.729Z,9.54
2024-04-02T02:31:32.711Z,9.53
2024-04-02T02:32:32.770Z,9.54
2024-04-02T02:33:32.736Z,9.56
2024-04-02T02:34:32.673Z,9.57
2024-04-02T02:35:32.707Z,9.58
2024-04-02T02:36:40.379Z,9.56
2024-04-02T02:37:40.385Z,9.53
2024-04-02T02:38:32.681Z,9.54
2024-04-02T02:39:32.620Z,9.51
2024-04-02T02:40:32.634Z,9.54
2024-04-02T02:41:32.631Z,9.53
2024-04-02T02:42:32.598Z,9.48
2024-04-02T02:43:32.576Z,9.43
2024-04-02T02:44:32.590Z,9.43
2024-04-02T02:45:32.573Z,9.43
2024-04-02T02:46:32.550Z,9.39
2024-04-02T02:47:32.567Z,9.39
2024-04-02T02:48:32.509Z,9.40
2024-04-02T02:49:32.496Z,9.46
2024-04-02T02:50:32.506Z,9.40
2024-04-02T02:51:32.526Z,9.42
2024-04-02T02:52:32.460Z,9.42
2024-04-02T02:53:32.462Z,9.42
2024-04-02T02:54:32.440Z,9.43
2024-04-02T02:55:32.436Z,9.46
2024-04-02T02:56:32.434Z,9.47
2024-04-02T02:57:32.456Z,9.46
2024-04-02T02:58:32.431Z,9.46
2024-04-02T02:59:32.405Z,9.50
2024-04-02T03:00:32.524Z,9.51
2024-04-02T03:01:32.378Z,9.51
2024-04-02T03:02:32.334Z,9.50
2024-04-02T03:03:32.354Z,9.53
2024-04-02T03:04:32.366Z,9.60
2024-04-02T03:05:32.341Z,9.61
2024-04-02T03:06:32.323Z,9.60
2024-04-02T03:07:32.312Z,9.60
2024-04-02T03:08:32.288Z,9.61
2024-04-02T03:09:32.290Z,9.60
2024-04-02T03:10:32.268Z,9.56
2024-04-02T03:11:32.252Z,9.58
2024-04-02T03:12:32.235Z,9.58
2024-04-02T03:13:32.214Z,9.61
2024-04-02T03:14:32.232Z,9.61
2024-04-02T03:15:32.189Z,9.60
2024-04-02T03:16:32.193Z,9.61
2024-04-02T03:17:32.174Z,9.65
2024-04-02T03:18:32.158Z,9.60
2024-04-02T03:19:32.165Z,9.64
2024-04-02T03:20:32.160Z,9.60
2024-04-02T03:21:32.125Z,9.57
2024-04-02T03:22:32.110Z,9.51
2024-04-02T03:23:32.082Z,9.57
2024-04-02T03:24:32.091Z,9.57
2024-04-02T03:25:32.096Z,9.53
2024-04-02T03:26:32.092Z,9.48
2024-04-02T03:27:32.044Z,9.47
2024-04-02T03:28:32.036Z,9.38
2024-04-02T03:29:32.034Z,9.38
2024-04-02T03:30:32.008Z,9.40
2024-04-02T03:31:32.042Z,9.38
2024-04-02T03:32:32.047Z,9.36
2024-04-02T03:33:31.953Z,9.32
2024-04-02T03:34:31.938Z,9.26
2024-04-02T03:35:31.952Z,9.24
2024-04-02T03:36:31.948Z,9.21
2024-04-02T03:37:32.104Z,9.21
2024-04-02T03:38:31.890Z,9.23
2024-04-02T03:39:35.374Z,9.21
2024-04-02T03:40:31.885Z,9.24
2024-04-02T03:41:31.897Z,9.23
2024-04-02T03:42:31.859Z,9.21
2024-04-02T03:43:31.886Z,9.20
2024-04-02T03:44:31.826Z,9.23
2024-04-02T03:45:31.821Z,9.20
2024-04-02T03:46:31.802Z,9.21
2024-04-02T03:47:31.864Z,9.21
2024-04-02T03:48:31.782Z,9.17
2024-04-02T03:49:31.784Z,9.13
2024-04-02T03:50:31.810Z,9.14
2024-04-02T03:51:31.789Z,9.10
2024-04-02T03:52:31.745Z,9.10
2024-04-02T03:53:31.724Z,9.14
2024-04-02T03:54:31.761Z,9.15
2024-04-02T03:55:31.675Z,9.14
2024-04-02T03:56:31.673Z,9.13
2024-04-02T03:57:31.739Z,9.15
2024-04-02T03:58:31.662Z,9.17
2024-04-02T03:59:31.636Z,9.15
2024-04-02T04:00:31.695Z,9.17
2024-04-02T04:01:31.612Z,9.17
2024-04-02T04:02:31.610Z,9.13
2024-04-02T04:03:31.592Z,9.14
2024-04-02T04:04:31.595Z,9.11
2024-04-02T04:05:31.595Z,9.05
2024-04-02T04:06:31.598Z,9.04
2024-04-02T04:07:31.582Z,9.08
2024-04-02T04:08:31.519Z,9.02
2024-04-02T04:09:31.523Z,9.11
2024-04-02T04:10:31.558Z,9.15
2024-04-02T04:11:31.529Z,9.20
2024-04-02T04:12:31.514Z,9.26
2024-04-02T04:13:31.493Z,9.31
2024-04-02T04:14:31.458Z,9.29
2024-04-02T04:15:31.504Z,9.32
2024-04-02T04:16:31.438Z,9.35
2024-04-02T04:17:31.415Z,9.35
2024-04-02T04:18:31.408Z,9.39
2024-04-02T04:19:31.436Z,9.38
2024-04-02T04:20:31.436Z,9.40
2024-04-02T04:21:31.407Z,9.40
2024-04-02T04:22:31.338Z,9.40
2024-04-02T04:23:31.354Z,9.40
2024-04-02T04:24:31.326Z,9.43
2024-04-02T04:25:31.358Z,9.46
2024-04-02T04:26:31.310Z,9.42
2024-04-02T04:27:31.302Z,9.43
2024-04-02T04:28:31.282Z,9.46
2024-04-02T04:29:31.360Z,9.40
2024-04-02T04:30:31.262Z,9.43
2024-04-02T04:31:31.309Z,9.43
2024-04-02T04:32:31.265Z,9.42
2024-04-02T04:33:31.238Z,9.40
2024-04-02T04:34:31.212Z,9.40
2024-04-02T04:35:31.205Z,9.38
2024-04-02T04:36:31.264Z,9.39
2024-04-02T04:37:31.170Z,9.39
2024-04-02T04:38:31.183Z,9.33
2024-04-02T04:39:31.153Z,9.31
2024-04-02T04:40:31.136Z,9.29
2024-04-02T04:41:31.159Z,9.29
2024-04-02T04:42:31.130Z,9.28
2024-04-02T04:43:31.131Z,9.28
2024-04-02T04:44:31.113Z,9.26
2024-04-02T04:45:31.087Z,9.23
2024-04-02T04:46:31.086Z,9.20
2024-04-02T04:47:31.106Z,9.18
2024-04-02T04:48:31.038Z,9.20
2024-04-02T04:49:31.007Z,9.14
2024-04-02T04:50:31.005Z,9.20
2024-04-02T04:51:31.142Z,9.20
2024-04-02T04:52:30.983Z,9.18
2024-04-02T04:53:30.975Z,9.21
2024-04-02T04:54:30.971Z,9.26
2024-04-02T04:55:31.014Z,9.28
2024-04-02T04:56:30.949Z,9.32
2024-04-02T04:57:30.937Z,9.32
2024-04-02T04:58:30.918Z,9.38
2024-04-02T04:59:30.966Z,9.38
2024-04-02T05:00:30.906Z,9.42
2024-04-02T05:01:30.894Z,9.43
2024-04-02T05:02:30.878Z,9.46
2024-04-02T05:03:30.924Z,9.48
2024-04-02T05:04:30.819Z,9.47
2024-04-02T05:05:30.836Z,9.51
2024-04-02T05:06:30.798Z,9.51
2024-04-02T05:07:30.780Z,9.54
2024-04-02T05:08:30.790Z,9.51
2024-04-02T05:09:30.802Z,9.50
2024-04-02T05:10:30.905Z,9.51
2024-04-02T05:11:30.762Z,9.56
2024-04-02T05:12:30.764Z,9.57
2024-04-02T05:13:30.722Z,9.57
2024-04-02T05:14:30.721Z,9.57
2024-04-02T05:15:30.726Z,9.61
2024-04-02T05:16:30.700Z,9.60
2024-04-02T05:17:30.704Z,9.60
2024-04-02T05:18:30.670Z,9.64
2024-04-02T05:19:30.706Z,9.64
2024-04-02T05:20:30.648Z,9.64
2024-04-02T05:21:30.630Z,9.64
2024-04-02T05:22:30.593Z,9.61
2024-04-02T05:23:30.632Z,9.60
2024-04-02T05:24:30.575Z,9.58
2024-04-02T05:25:30.606Z,9.60
2024-04-02T05:26:30.560Z,9.61
2024-04-02T05:27:30.560Z,9.57
2024-04-02T05:28:30.517Z,9.58
2024-04-02T05:29:30.532Z,9.58
2024-04-02T05:30:30.498Z,9.57
2024-04-02T05:31:30.505Z,9.60
2024-04-02T05:32:30.471Z,9.61
2024-04-02T05:33:30.448Z,9.65
2024-04-02T05:34:30.444Z,9.68
2024-04-02T05:35:30.486Z,9.69
2024-04-02T05:36:30.453Z,9.72
2024-04-02T05:37:30.420Z,9.69
2024-04-02T05:38:30.403Z,9.69
2024-04-02T05:39:30.378Z,9.75
2024-04-02T05:40:30.386Z,9.79
2024-04-02T05:41:30.383Z,9.78
2024-04-02T05:42:38.084Z,9.76
2024-04-02T05:43:30.321Z,9.84
2024-04-02T05:44:30.310Z,9.81
2024-04-02T05:45:30.333Z,9.84
2024-04-02T05:46:30.345Z,9.84
2024-04-02T05:47:30.281Z,9.83
2024-04-02T05:48:30.325Z,9.87
2024-04-02T05:49:30.303Z,9.86
2024-04-02T05:50:30.255Z,9.86
2024-04-02T05:51:30.287Z,9.87
2024-04-02T05:52:30.239Z,9.87
2024-04-02T05:53:30.287Z,9.89
2024-04-02T05:54:30.240Z,9.93
2024-04-02T05:55:30.197Z,9.97
2024-04-02T05:56:30.205Z,9.99
2024-04-02T05:57:30.170Z,10.01
2024-04-02T05:58:30.147Z,10.01
2024-04-02T05:59:30.182Z,10.02
2024-04-02T06:00:30.131Z,10.05
2024-04-02T06:01:30.107Z,10.07
2024-04-02T06:02:30.110Z,10.08
2024-04-02T06:03:30.095Z,10.11
2024-04-02T06:04:30.247Z,10.11
2024-04-02T06:05:30.079Z,10.12
2024-04-02T06:06:30.077Z,10.12
2024-04-02T06:07:30.027Z,10.15
2024-04-02T06:08:30.041Z,10.15
2024-04-02T06:09:30.016Z,10.17
2024-04-02T06:10:29.997Z,10.12
2024-04-02T06:11:29.986Z,10.11
2024-04-02T06:12:29.976Z,10.12
2024-04-02T06:13:29.956Z,10.09
2024-04-02T06:14:29.943Z,10.04
2024-04-02T06:15:29.958Z,10.02
2024-04-02T06:16:29.957Z,10.02
2024-04-02T06:17:29.916Z,10.04
2024-04-02T06:18:29.888Z,10.07
2024-04-02T06:19:29.900Z,10.08
2024-04-02T06:20:29.879Z,10.05
2024-04-02T06:21:29.864Z,10.09
2024-04-02T06:22:29.877Z,10.15
2024-04-02T06:23:29.833Z,10.20
2024-04-02T06:24:29.817Z,10.18
2024-04-02T06:25:29.937Z,10.23
2024-04-02T06:26:29.813Z,10.22
2024-04-02T06:27:29.882Z,10.25
2024-04-02T06:28:29.763Z,10.29
2024-04-02T06:29:29.738Z,10.33
2024-04-02T06:30:29.743Z,10.44
2024-04-02T06:31:29.714Z,10.42
2024-04-02T06:32:29.753Z,10.47
2024-04-02T06:33:29.728Z,10.52
2024-04-02T06:34:29.709Z,10.52
2024-04-02T06:35:29.644Z,10.59
2024-04-02T06:36:29.670Z,10.63
2024-04-02T06:37:29.668Z,10.64
2024-04-02T06:38:29.660Z,10.68
2024-04-02T06:39:29.655Z,10.73
2024-04-02T06:40:29.640Z,10.71
2024-04-02T06:41:29.644Z,10.74
2024-04-02T06:42:29.599Z,10.78
2024-04-02T06:43:29.582Z,10.79
2024-04-02T06:44:29.614Z,10.79
2024-04-02T06:45:29.547Z,10.82
2024-04-02T06:46:29.561Z,10.81
2024-04-02T06:47:29.568Z,10.81
2024-04-02T06:48:29.578Z,10.86
2024-04-02T06:49:29.579Z,10.92
2024-04-02T06:50:29.473Z,10.97
2024-04-02T06:51:29.499Z,11.00
2024-04-02T06:52:29.463Z,11.07
2024-04-02T06:53:29.447Z,11.11
2024-04-02T06:54:29.417Z,11.21
2024-04-02T06:55:29.413Z,11.18
2024-04-02T06:56:29.494Z,11.14
2024-04-02T06:57:29.379Z,11.15
2024-04-02T06:58:29.393Z,11.09
2024-04-02T06:59:29.365Z,11.07
2024-04-02T07:00:29.434Z,11.03
2024-04-02T07:01:29.303Z,11.02
2024-04-02T07:02:29.378Z,10.97
2024-04-02T07:03:29.282Z,10.97
2024-04-02T07:04:29.306Z,10.97
2024-04-02T07:05:29.236Z,10.97
2024-04-02T07:06:29.251Z,11.04
2024-04-02T07:07:29.213Z,11.09
2024-04-02T07:08:29.221Z,11.09
2024-04-02T07:09:29.171Z,11.11
2024-04-02T07:10:29.172Z,11.14
2024-04-02T07:11:29.216Z,11.17
2024-04-02T07:12:29.167Z,11.17
2024-04-02T07:13:29.188Z,11.18
2024-04-02T07:14:29.110Z,11.15
2024-04-02T07:15:29.102Z,11.14
2024-04-02T07:16:29.143Z,11.11
2024-04-02T07:17:29.162Z,11.11
2024-04-02T07:18:29.175Z,11.15
2024-04-02T07:19:29.064Z,11.22
2024-04-02T07:20:29.058Z,11.21
2024-04-02T07:21:29.038Z,11.21
2024-04-02T07:22:36.776Z,11.22
2024-04-02T07:23:29.046Z,11.27
2024-04-02T07:24:29.027Z,11.25
2024-04-02T07:25:28.964Z,11.25
2024-04-02T07:26:28.993Z,11.24
2024-04-02T07:27:28.992Z,11.21
2024-04-02T07:28:28.949Z,11.22
2024-04-02T07:29:28.907Z,11.25
2024-04-02T07:30:28.952Z,11.27
2024-04-02T07:31:28.938Z,11.25
2024-04-02T07:32:29.003Z,11.27
2024-04-02T07:33:28.854Z,11.33
2024-04-02T07:34:28.853Z,11.40
2024-04-02T07:35:28.799Z,11.46
2024-04-02T07:36:28.848Z,11.46
2024-04-02T07:37:28.807Z,11.47
2024-04-02T07:38:28.853Z,11.43
2024-04-02T07:39:29.338Z,11.40
2024-04-02T07:40:28.788Z,11.37
2024-04-02T07:41:28.735Z,11.35
2024-04-02T07:42:28.787Z,11.33
2024-04-02T07:43:28.771Z,11.32
2024-04-02T07:44:28.788Z,11.32
2024-04-02T07:45:28.707Z,11.28
2024-04-02T07:46:28.686Z,11.28
2024-04-02T07:47:28.702Z,11.33
2024-04-02T07:48:28.668Z,11.36
2024-04-02T07:49:28.683Z,11.40
2024-04-02T07:50:28.645Z,11.39
2024-04-02T07:51:28.647Z,11.39
2024-04-02T07:52:28.952Z,11.40
2024-04-02T07:53:29.688Z,11.44
2024-04-02T07:54:28.568Z,11.40
2024-04-02T07:55:28.555Z,11.43
2024-04-02T07:56:28.560Z,11.44
2024-04-02T07:57:28.532Z,11.40
2024-04-02T07:58:28.577Z,11.36
2024-04-02T07:59:28.499Z,11.35
2024-04-02T08:00:28.532Z,11.33
2024-04-02T08:01:28.507Z,11.28
2024-04-02T08:02:28.460Z,11.25
2024-04-02T08:03:28.429Z,11.28
2024-04-02T08:04:28.456Z,11.29
2024-04-02T08:05:28.409Z,11.29
2024-04-02T08:06:28.435Z,11.32
2024-04-02T08:07:28.370Z,11.29
2024-04-02T08:08:28.351Z,11.32
2024-04-02T08:09:28.354Z,11.29
2024-04-02T08:10:28.390Z,11.28
2024-04-02T08:11:28.346Z,11.29
2024-04-02T08:12:28.339Z,11.32
2024-04-02T08:13:28.287Z,11.35
2024-04-02T08:14:28.306Z,11.35
2024-04-02T08:15:28.293Z,11.35
2024-04-02T08:16:28.289Z,11.39
2024-04-02T08:17:28.287Z,11.42
2024-04-02T08:18:28.253Z,11.46
2024-04-02T08:19:28.331Z,11.49
2024-04-02T08:20:28.222Z,11.47
2024-04-02T08:21:28.214Z,11.52
2024-04-02T08:22:28.222Z,11.55
2024-04-02T08:23:28.202Z,11.55
2024-04-02T08:24:28.176Z,11.57
2024-04-02T08:25:28.147Z,11.58
2024-04-02T08:26:28.144Z,11.54
2024-04-02T08:27:28.556Z,11.51
2024-04-02T08:28:28.132Z,11.51
2024-04-02T08:29:28.117Z,11.51
2024-04-02T08:30:28.086Z,11.51
2024-04-02T08:31:28.072Z,11.55
2024-04-02T08:32:28.125Z,11.58
2024-04-02T08:33:28.006Z,11.61
2024-04-02T08:34:28.013Z,11.70
2024-04-02T08:35:28.054Z,11.67
2024-04-02T08:36:27.996Z,11.72
2024-04-02T08:37:27.960Z,11.79
2024-04-02T08:38:28.001Z,11.80
2024-04-02T08:39:27.945Z,11.86
2024-04-02T08:40:28.113Z,11.88
2024-04-02T08:41:27.936Z,11.94
2024-04-02T08:42:29.651Z,11.90
2024-04-02T08:43:27.897Z,11.83
2024-04-02T08:44:27.903Z,11.82
2024-04-02T08:45:27.853Z,11.76
2024-04-02T08:46:27.848Z,11.76
2024-04-02T08:47:27.890Z,11.76
2024-04-02T08:48:27.807Z,11.78
2024-04-02T08:49:27.846Z,11.82
2024-04-02T08:50:27.838Z,11.79
2024-04-02T08:51:27.766Z,11.79
2024-04-02T08:52:27.773Z,11.78
2024-04-02T08:53:27.804Z,11.80
2024-04-02T08:54:27.716Z,11.79
2024-04-02T08:55:27.798Z,11.86
2024-04-02T08:56:27.832Z,11.90
2024-04-02T08:57:27.659Z,11.88
2024-04-02T08:58:27.709Z,11.94
2024-04-02T08:59:27.656Z,11.94
2024-04-02T09:00:27.656Z,11.86
2024-04-02T09:01:27.687Z,11.83
2024-04-02T09:02:27.628Z,11.80
2024-04-02T09:03:27.598Z,11.75
2024-04-02T09:04:27.644Z,11.72
2024-04-02T09:05:27.625Z,11.75
2024-04-02T09:06:27.584Z,11.76
2024-04-02T09:07:27.546Z,11.82
2024-04-02T09:08:27.645Z,11.88
2024-04-02T09:09:27.524Z,11.94
2024-04-02T09:10:27.555Z,11.91
2024-04-02T09:11:27.522Z,11.96
2024-04-02T09:12:27.465Z,11.90
2024-04-02T09:13:27.435Z,11.90
2024-04-02T09:14:27.475Z,11.90
2024-04-02T09:15:27.449Z,11.88
2024-04-02T09:16:27.410Z,11.88
2024-04-02T09:17:27.524Z,11.86
2024-04-02T09:18:27.446Z,11.85
2024-04-02T09:19:27.409Z,11.82
2024-04-02T09:20:27.416Z,11.75
2024-04-02T09:21:27.324Z,11.82
2024-04-02T09:22:27.354Z,11.85
2024-04-02T09:23:27.345Z,11.91
2024-04-02T09:24:27.277Z,11.96
2024-04-02T09:25:29.041Z,12.05
2024-04-02T09:26:27.314Z,12.19
2024-04-02T09:27:27.245Z,12.31
2024-04-02T09:28:27.260Z,12.41
2024-04-02T09:29:27.229Z,12.46
2024-04-02T09:30:27.214Z,12.45
2024-04-02T09:31:29.579Z,12.45
2024-04-02T09:32:27.295Z,12.37
2024-04-02T09:33:27.160Z,12.32
2024-04-02T09:34:27.166Z,12.32
2024-04-02T09:35:27.155Z,12.31
2024-04-02T09:36:27.112Z,12.31
2024-04-02T09:37:30.040Z,12.34
2024-04-02T09:38:27.120Z,12.31
2024-04-02T09:39:27.068Z,12.27
2024-04-02T09:40:27.056Z,12.17
2024-04-02T09:41:27.096Z,12.17
2024-04-02T09:42:27.058Z,12.17
2024-04-02T09:43:29.224Z,12.16
2024-04-02T09:44:27.051Z,12.14
2024-04-02T09:45:26.989Z,12.10
2024-04-02T09:46:26.977Z,12.13
2024-04-02T09:47:26.961Z,12.20
2024-04-02T09:48:26.944Z,12.27
2024-04-02T09:49:29.271Z,12.41
2024-04-02T09:50:27.044Z,12.50
2024-04-02T09:51:26.887Z,12.62
2024-04-02T09:52:26.915Z,12.78
2024-04-02T09:53:26.897Z,12.87
2024-04-02T09:54:26.888Z,12.96
2024-04-02T09:55:29.581Z,13.10
2024-04-02T09:56:26.872Z,13.10
2024-04-02T09:57:26.808Z,13.30
2024-04-02T09:58:26.796Z,13.32
2024-04-02T09:59:26.783Z,13.26
2024-04-02T10:00:26.781Z,13.32
2024-04-02T10:01:29.552Z,13.28
2024-04-02T10:02:26.798Z,13.22
2024-04-02T10:03:26.754Z,13.15
2024-04-02T10:04:26.788Z,13.10
2024-04-02T10:05:26.736Z,13.00
2024-04-02T10:06:34.454Z,12.82
2024-04-02T10:07:26.698Z,12.60
2024-04-02T10:08:26.702Z,12.53
2024-04-02T10:09:26.638Z,12.47
2024-04-02T10:10:26.664Z,12.39
2024-04-02T10:11:26.599Z,12.35
2024-04-02T10:12:26.579Z,12.34
2024-04-02T10:13:26.601Z,12.29
2024-04-02T10:14:26.576Z,12.29
2024-04-02T10:15:26.520Z,12.32
2024-04-02T10:16:26.572Z,12.31
2024-04-02T10:17:26.563Z,12.41
2024-04-02T10:18:26.554Z,12.52
2024-04-02T10:19:26.514Z,12.67
2024-04-02T10:20:26.529Z,12.79
2024-04-02T10:21:26.518Z,12.85
2024-04-02T10:22:26.515Z,12.85
2024-04-02T10:23:26.494Z,12.70
2024-04-02T10:24:26.387Z,12.62
2024-04-02T10:25:26.533Z,12.65
2024-04-02T10:26:26.499Z,12.72
2024-04-02T10:27:26.368Z,12.83
2024-04-02T10:28:26.362Z,13.03
2024-04-02T10:29:26.360Z,13.20
2024-04-02T10:30:26.386Z,13.30
2024-04-02T10:31:26.315Z,13.39
2024-04-02T10:32:26.314Z,13.38
2024-04-02T10:33:26.271Z,13.55
2024-04-02T10:34:26.264Z,13.79
2024-04-02T10:35:26.241Z,13.87
2024-04-02T10:36:26.236Z,13.81
2024-04-02T10:37:26.257Z,13.85
2024-04-02T10:38:26.200Z,13.70
2024-04-02T10:39:26.233Z,13.59
2024-04-02T10:40:26.211Z,13.59
2024-04-02T10:41:26.189Z,13.62
2024-04-02T10:42:26.162Z,13.60
2024-04-02T10:43:26.117Z,13.60
2024-04-02T10:44:26.161Z,13.49
2024-04-02T10:45:26.094Z,13.39
2024-04-02T10:46:26.079Z,13.29
2024-04-02T10:47:26.107Z,13.25
2024-04-02T10:48:26.048Z,13.48
2024-04-02T10:49:26.032Z,13.96
2024-04-02T10:50:26.025Z,13.92
2024-04-02T10:51:26.038Z,13.88
2024-04-02T10:52:26.057Z,13.87
2024-04-02T10:53:25.979Z,13.95
2024-04-02T10:54:25.965Z,14.03
2024-04-02T10:55:25.966Z,14.12
2024-04-02T10:56:25.968Z,14.18
2024-04-02T10:57:25.971Z,14.09
2024-04-02T10:58:25.986Z,14.07
2024-04-02T10:59:25.940Z,13.99
2024-04-02T11:00:25.886Z,14.06
2024-04-02T11:01:25.914Z,14.10
2024-04-02T11:02:25.888Z,14.10
2024-04-02T11:03:25.855Z,14.10
2024-04-02T11:04:25.882Z,14.15
2024-04-02T11:05:25.862Z,14.17
2024-04-02T11:06:25.806Z,14.12
2024-04-02T11:07:25.817Z,14.07
2024-04-02T11:08:25.800Z,14.14
2024-04-02T11:09:25.841Z,14.03
2024-04-02T11:10:25.751Z,13.91
2024-04-02T11:11:25.738Z,13.85
2024-04-02T11:12:25.763Z,13.88
2024-04-02T11:13:25.743Z,13.99
2024-04-02T11:14:25.723Z,13.97
2024-04-02T11:15:25.701Z,13.82
2024-04-02T11:16:25.666Z,13.67
2024-04-02T11:17:25.674Z,13.63
2024-04-02T11:18:28.706Z,13.57
2024-04-02T11:19:25.646Z,13.41
2024-04-02T11:20:25.641Z,13.29
2024-04-02T11:21:25.640Z,13.17
2024-04-02T11:22:25.664Z,13.07
2024-04-02T11:23:25.618Z,13.01
2024-04-02T11:24:25.554Z,12.96
2024-04-02T11:25:29.880Z,12.95
2024-04-02T11:26:25.545Z,12.97
2024-04-02T11:27:25.517Z,13.03
2024-04-02T11:28:25.535Z,12.89
2024-04-02T11:29:25.570Z,12.96
2024-04-02T11:30:28.461Z,13.01
2024-04-02T11:31:25.511Z,13.08
2024-04-02T11:32:25.481Z,13.22
2024-04-02T11:33:25.428Z,13.39
2024-04-02T11:34:25.419Z,13.36
2024-04-02T11:35:25.468Z,13.25
2024-04-02T11:36:27.176Z,13.12
2024-04-02T11:37:25.378Z,13.17
2024-04-02T11:38:25.376Z,13.10
2024-04-02T11:39:25.426Z,12.97
2024-04-02T11:40:25.360Z,12.93
2024-04-02T11:41:25.328Z,12.89
2024-04-02T11:42:25.369Z,12.78
2024-04-02T11:43:25.290Z,12.62
2024-04-02T11:44:25.375Z,12.50
2024-04-02T11:45:25.275Z,12.59
2024-04-02T11:46:25.272Z,12.59
2024-04-02T11:47:25.286Z,12.32
2024-04-02T11:48:25.250Z,12.16
2024-04-02T11:49:25.246Z,12.01
2024-04-02T11:50:25.199Z,12.02
2024-04-02T11:51:25.184Z,12.05
2024-04-02T11:52:25.184Z,12.02
2024-04-02T11:53:25.158Z,12.07
2024-04-02T11:54:25.134Z,11.98
2024-04-02T11:55:25.141Z,11.95
2024-04-02T11:56:25.118Z,11.99
2024-04-02T11:57:25.193Z,11.91
2024-04-02T11:58:25.108Z,11.90
2024-04-02T11:59:25.070Z,11.82
2024-04-02T12:00:25.061Z,11.78
2024-04-02T12:01:25.053Z,11.78
2024-04-02T12:02:25.028Z,11.78
2024-04-02T12:03:25.041Z,11.67
2024-04-02T12:04:25.035Z,11.72
2024-04-02T12:05:25.003Z,11.67
2024-04-02T12:06:24.976Z,11.61
2024-04-02T12:07:24.970Z,11.61
2024-04-02T12:08:25.007Z,11.58
2024-04-02T12:09:24.969Z,11.55
2024-04-02T12:10:24.924Z,11.54
2024-04-02T12:11:24.928Z,11.52
2024-04-02T12:12:24.907Z,11.57
2024-04-02T12:13:24.918Z,11.58
2024-04-02T12:14:24.848Z,11.65
2024-04-02T12:15:25.320Z,11.55
2024-04-02T12:16:24.855Z,11.60
2024-04-02T12:17:24.832Z,11.54
2024-04-02T12:18:24.798Z,11.51
2024-04-02T12:19:24.782Z,11.46
2024-04-02T12:20:24.780Z,11.39
2024-04-02T12:21:24.960Z,11.32
2024-04-02T12:22:24.807Z,11.35
2024-04-02T12:23:24.734Z,11.32
2024-04-02T12:24:24.702Z,11.28
2024-04-02T12:25:24.720Z,11.19
2024-04-02T12:26:24.684Z,11.21
2024-04-02T12:27:24.769Z,11.17
2024-04-02T12:28:24.647Z,11.03
2024-04-02T12:29:24.646Z,10.99
2024-04-02T12:30:24.626Z,10.94
2024-04-02T12:31:25.692Z,10.92
2024-04-02T12:32:24.627Z,10.89
2024-04-02T12:33:24.575Z,10.92
2024-04-02T12:34:24.755Z,10.96
2024-04-02T12:35:24.582Z,10.94
2024-04-02T12:36:24.571Z,10.91
2024-04-02T12:37:25.716Z,10.82
2024-04-02T12:38:24.565Z,10.79
2024-04-02T12:39:24.514Z,10.74
2024-04-02T12:40:24.510Z,10.81
2024-04-02T12:41:24.497Z,10.74
2024-04-02T12:42:24.492Z,10.86
2024-04-02T12:43:24.465Z,10.91
2024-04-02T12:44:24.410Z,10.82
2024-04-02T12:45:24.461Z,10.68
2024-04-02T12:46:24.427Z,10.51
2024-04-02T12:47:24.487Z,10.40
2024-04-02T12:48:24.402Z,10.36
2024-04-02T12:49:24.564Z,10.42
2024-04-02T12:50:24.364Z,10.36
2024-04-02T12:51:24.326Z,10.44
2024-04-02T12:52:24.364Z,10.42
2024-04-02T12:53:24.323Z,10.51
2024-04-02T12:54:24.324Z,10.67
2024-04-02T12:55:24.326Z,10.81
2024-04-02T12:56:24.261Z,10.94
2024-04-02T12:57:24.274Z,10.96
2024-04-02T12:58:28.455Z,11.09
2024-04-02T12:59:25.274Z,11.22
2024-04-02T13:00:24.202Z,11.54
2024-04-02T13:01:24.215Z,11.88
2024-04-02T13:02:24.188Z,11.96
2024-04-02T13:03:24.179Z,11.86
2024-04-02T13:04:24.144Z,12.01